Time;durP1;ratioP1;P1;durP2;ratioP2;P2;SDS_P1;SDS_P2;PMS_P1;PMS_P2;Temp;Humidity;BMP_temperature;BMP_pressure;BME280_temperature;BME280_humidity;BME280_pressure;Samples;Min_cycle;Max_cycle;Signal;HPM_P1;HPM_P2
2021/12/11 00:00:26;;;;;;;19.60;10.80;;;;;;;4.28;89.96;94198.91;5100640;28;20216;-70
2021/12/11 00:03:00;;;;;;;12.48;8.02;;;;;;;4.31;89.11;94193.81;5099082;28;20609;-70
2021/12/11 00:05:28;;;;;;;13.82;9.05;;;;;;;4.61;87.79;94190.56;5099688;28;20197;-70
2021/12/11 00:07:55;;;;;;;15.60;9.27;;;;;;;4.63;87.52;94195.56;5099017;28;20197;-70
2021/12/11 00:10:28;;;;;;;21.67;9.27;;;;;;;4.73;86.66;94207.84;5100323;28;20289;-70
2021/12/11 00:13:00;;;;;;;15.13;9.13;;;;;;;4.71;86.87;94214.63;5099631;28;20205;-70
2021/12/11 00:15:30;;;;;;;17.98;10.15;;;;;;;4.67;87.36;94228.16;5102176;28;20671;-70
2021/12/11 00:17:59;;;;;;;15.25;9.65;;;;;;;4.63;87.34;94228.28;5100584;28;20201;-70
2021/12/11 00:20:30;;;;;;;17.03;9.87;;;;;;;4.42;88.55;94237.16;5100057;28;20758;-70
2021/12/11 00:22:58;;;;;;;18.33;9.52;;;;;;;4.37;89.21;94251.53;5101664;28;20204;-70
2021/12/11 00:25:26;;;;;;;12.25;9.57;;;;;;;4.13;90.25;94245.34;5099741;28;20756;-70
2021/12/11 00:28:02;;;;;;;17.35;9.55;;;;;;;4.06;91.88;94239.63;5100209;28;20218;-70
2021/12/11 00:30:32;;;;;;;18.33;9.98;;;;;;;3.96;92.21;94253.22;5099434;28;20606;-69
2021/12/11 00:33:01;;;;;;;18.70;9.20;;;;;;;4.15;91.66;94250.34;5099202;28;20547;-70
2021/12/11 00:35:28;;;;;;;13.53;9.83;;;;;;;4.22;91.17;94244.31;5099076;28;20638;-70
2021/12/11 00:38:02;;;;;;;14.20;8.90;;;;;;;4.50;89.71;94240.28;5098639;28;20189;-70
2021/12/11 00:40:31;;;;;;;10.70;7.13;;;;;;;4.66;88.86;94236.56;5098707;28;20313;-70
2021/12/11 00:43:02;;;;;;;8.65;7.75;;;;;;;4.55;89.02;94223.41;5099831;28;20554;-69
2021/12/11 00:45:32;;;;;;;12.30;7.57;;;;;;;4.33;89.93;94222.25;5099866;28;20291;-69
2021/12/11 00:48:03;;;;;;;17.08;8.25;;;;;;;4.33;90.48;94227.28;5098416;28;20281;-70
2021/12/11 00:50:37;;;;;;;7.38;6.43;;;;;;;4.40;89.81;94236.38;5097508;28;20317;-70
2021/12/11 00:53:11;;;;;;;12.88;8.35;;;;;;;4.36;89.99;94218.00;5099348;28;20253;-70
2021/12/11 00:55:43;;;;;;;10.98;7.75;;;;;;;4.28;90.67;94206.44;5098512;28;20189;-69
2021/12/11 00:58:13;;;;;;;10.23;7.18;;;;;;;4.20;91.38;94205.81;5097923;28;20201;-69
2021/12/11 01:00:43;;;;;;;11.32;7.97;;;;;;;4.40;90.17;94209.53;5099378;28;20205;-70
2021/12/11 01:03:14;;;;;;;9.38;7.53;;;;;;;4.36;90.39;94217.16;5097945;28;20257;-69
2021/12/11 01:05:46;;;;;;;10.67;6.60;;;;;;;4.49;89.52;94222.72;5098466;28;20644;-69
2021/12/11 01:08:23;;;;;;;8.32;6.15;;;;;;;4.54;89.29;94220.94;5098876;28;20209;-69
2021/12/11 01:10:59;;;;;;;7.23;6.23;;;;;;;4.40;89.01;94206.19;5097893;28;20822;-69
2021/12/11 01:13:31;;;;;;;10.50;6.82;;;;;;;4.40;88.95;94209.53;5097478;28;20196;-69
2021/12/11 01:16:05;;;;;;;17.43;7.33;;;;;;;4.23;89.31;94216.59;5098801;28;20212;-69
2021/12/11 01:18:37;;;;;;;13.63;6.97;;;;;;;4.07;90.82;94213.63;5098876;28;20349;-69
2021/12/11 01:21:25;;;;;;;10.45;6.93;;;;;;;3.97;91.58;94209.66;5100375;28;20270;-69
2021/12/11 01:24:09;;;;;;;13.35;7.03;;;;;;;4.01;90.81;94211.25;5099553;28;20205;-69
2021/12/11 01:26:40;;;;;;;9.90;5.93;;;;;;;4.02;90.96;94222.13;5100578;28;20205;-69
2021/12/11 01:29:08;;;;;;;10.00;4.80;;;;;;;4.12;89.14;94213.53;5099411;28;20205;-69
2021/12/11 01:31:35;;;;;;;6.37;4.70;;;;;;;4.10;88.34;94211.03;5100578;28;21801;-69
2021/12/11 01:34:03;;;;;;;5.33;4.83;;;;;;;3.87;89.12;94218.25;5099433;28;20216;-69
2021/12/11 01:36:30;;;;;;;9.47;4.50;;;;;;;3.84;88.58;94213.28;5100215;28;20185;-69
2021/12/11 01:38:59;;;;;;;4.57;3.60;;;;;;;4.04;88.45;94218.72;5100288;28;20245;-69
2021/12/11 01:41:26;;;;;;;3.78;3.45;;;;;;;4.10;87.61;94211.03;5098864;28;20193;-69
2021/12/11 01:43:58;;;;;;;4.47;2.53;;;;;;;4.05;86.57;94212.81;5097986;28;20203;-70
2021/12/11 01:46:28;;;;;;;2.73;2.53;;;;;;;3.93;87.09;94193.00;5098869;28;20277;-69
2021/12/11 01:48:58;;;;;;;2.97;2.77;;;;;;;3.95;87.23;94196.31;5097790;28;20189;-69
2021/12/11 01:51:31;;;;;;;3.47;2.70;;;;;;;3.88;87.16;94189.75;5100837;28;20209;-69
2021/12/11 01:54:03;;;;;;;3.53;2.47;;;;;;;3.91;87.14;94191.38;5100799;28;20197;-69
2021/12/11 01:56:32;;;;;;;6.03;3.17;;;;;;;3.98;86.25;94190.38;5102953;28;20675;-69
2021/12/11 01:59:04;;;;;;;3.13;2.83;;;;;;;3.99;86.65;94182.78;5101309;28;20323;-69
2021/12/11 02:01:37;;;;;;;6.90;2.23;;;;;;;3.98;86.88;94191.19;5102238;28;20674;-70
2021/12/11 02:04:06;;;;;;;3.73;3.00;;;;;;;3.82;87.13;94189.88;5101203;28;20274;-69
2021/12/11 02:06:38;;;;;;;2.60;2.40;;;;;;;3.83;87.23;94189.03;5102727;28;20201;-70
2021/12/11 02:09:13;;;;;;;3.53;3.13;;;;;;;3.75;87.79;94193.38;5102151;28;20244;-70
2021/12/11 02:11:40;;;;;;;4.23;2.37;;;;;;;3.60;87.89;94178.63;5102575;28;20220;-69
2021/12/11 02:14:09;;;;;;;3.60;2.73;;;;;;;3.51;88.51;94178.81;5101155;28;20205;-69
2021/12/11 02:16:42;;;;;;;3.40;2.77;;;;;;;3.37;88.89;94182.44;5102344;28;20304;-69
2021/12/11 02:19:12;;;;;;;3.10;2.80;;;;;;;3.40;89.77;94182.41;5101017;28;20232;-69
2021/12/11 02:21:48;;;;;;;3.10;2.80;;;;;;;3.33;90.25;94192.59;5102140;28;20732;-69
2021/12/11 02:24:20;;;;;;;2.67;2.50;;;;;;;3.48;89.88;94193.94;5101533;28;20200;-69
2021/12/11 02:26:47;;;;;;;2.40;2.20;;;;;;;3.56;89.02;94187.09;5104278;28;20208;-69
2021/12/11 02:29:21;;;;;;;2.93;2.73;;;;;;;3.56;88.91;94192.13;5102106;28;20207;-69
2021/12/11 02:31:52;;;;;;;4.20;2.90;;;;;;;3.65;88.37;94197.78;5102365;28;20209;-69
2021/12/11 02:34:26;;;;;;;5.47;2.63;;;;;;;3.52;88.85;94196.38;5101559;28;20524;-69
2021/12/11 02:36:58;;;;;;;3.60;3.30;;;;;;;3.55;89.30;94195.47;5101186;28;20288;-69
2021/12/11 02:39:29;;;;;;;3.37;3.07;;;;;;;3.50;89.18;94189.72;5101625;28;20719;-69
2021/12/11 02:42:01;;;;;;;6.20;5.13;;;;;;;3.48;89.45;94176.38;5101223;28;20185;-70
2021/12/11 02:44:32;;;;;;;7.27;5.10;;;;;;;3.31;89.61;94176.72;5103386;28;20212;-69
2021/12/11 02:47:04;;;;;;;8.03;4.47;;;;;;;3.40;90.67;94167.31;5102584;28;20567;-70
2021/12/11 02:49:34;;;;;;;4.70;4.30;;;;;;;3.55;90.06;94176.22;5103990;28;20726;-70
2021/12/11 02:52:09;;;;;;;4.33;3.93;;;;;;;3.68;89.42;94166.75;5102802;28;20189;-70
2021/12/11 02:54:40;;;;;;;4.25;3.90;;;;;;;3.54;89.00;94168.72;5101315;28;21090;-69
2021/12/11 02:57:11;;;;;;;4.20;3.80;;;;;;;3.39;90.14;94157.31;5099971;28;20220;-70
2021/12/11 02:59:42;;;;;;;4.05;3.67;;;;;;;3.32;90.65;94176.69;5101331;28;20648;-69
2021/12/11 03:02:13;;;;;;;4.38;3.97;;;;;;;3.63;89.59;94158.47;5100014;28;20251;-70
2021/12/11 03:04:47;;;;;;;3.38;3.17;;;;;;;3.49;90.09;94153.72;5102000;28;20482;-69
2021/12/11 03:07:16;;;;;;;4.70;3.97;;;;;;;3.35;90.93;94161.56;5100278;28;20237;-70
2021/12/11 03:09:46;;;;;;;5.32;4.35;;;;;;;3.32;91.58;94154.09;5101291;28;20277;-70
2021/12/11 03:12:15;;;;;;;4.88;3.63;;;;;;;3.54;91.94;94161.19;5101371;28;20311;-71
2021/12/11 03:14:43;;;;;;;4.63;4.23;;;;;;;3.71;91.24;94167.47;5100529;28;20278;-66
2021/12/11 03:17:10;;;;;;;21.93;11.17;;;;;;;3.84;90.09;94172.25;5100192;28;20569;-68
2021/12/11 03:19:40;;;;;;;11.77;6.73;;;;;;;4.04;89.22;94165.91;5100668;28;20264;-67
2021/12/11 03:22:14;;;;;;;7.47;5.93;;;;;;;4.02;89.00;94142.50;5101420;28;20374;-68
2021/12/11 03:24:42;;;;;;;6.63;4.80;;;;;;;4.21;88.49;94152.94;5099748;28;20201;-67
2021/12/11 03:27:10;;;;;;;5.88;3.47;;;;;;;4.23;87.67;94151.22;5101820;28;20185;-69
2021/12/11 03:29:37;;;;;;;3.10;2.90;;;;;;;4.01;88.41;94145.06;5101303;28;20281;-69
2021/12/11 03:32:07;;;;;;;3.50;3.20;;;;;;;4.05;88.83;94144.13;5102683;28;20201;-68
2021/12/11 03:34:35;;;;;;;3.03;2.73;;;;;;;3.87;89.60;94137.00;5101873;28;20654;-68
2021/12/11 03:37:04;;;;;;;2.87;2.67;;;;;;;3.76;90.76;94125.50;5102582;28;20201;-69
2021/12/11 03:39:34;;;;;;;8.53;3.53;;;;;;;3.78;90.59;94125.47;5101474;28;20244;-69
2021/12/11 03:42:07;;;;;;;2.73;2.63;;;;;;;3.74;90.97;94119.69;5103049;28;20257;-70
2021/12/11 03:44:34;;;;;;;3.33;3.03;;;;;;;3.82;90.32;94118.69;5101679;28;20201;-69
2021/12/11 03:47:06;;;;;;;3.40;3.07;;;;;;;3.63;90.92;94123.31;5101443;28;20204;-69
2021/12/11 03:49:34;;;;;;;3.77;3.03;;;;;;;3.52;91.86;94115.16;5102477;28;20207;-69
2021/12/11 03:52:01;;;;;;;4.70;2.90;;;;;;;3.42;92.64;94125.44;5102294;28;20198;-69
2021/12/11 03:54:32;;;;;;;3.00;2.80;;;;;;;3.47;92.73;94117.78;5101999;28;20242;-69
2021/12/11 03:56:59;;;;;;;3.40;3.10;;;;;;;3.61;92.46;94127.53;5102362;28;20200;-69
2021/12/11 03:59:31;;;;;;;3.70;3.40;;;;;;;3.62;92.36;94124.16;5097800;28;20771;-69
2021/12/11 04:02:03;;;;;;;3.20;2.70;;;;;;;3.72;92.23;94123.09;5100137;28;20660;-69
2021/12/11 04:04:34;;;;;;;3.23;2.70;;;;;;;3.87;92.00;94142.88;5100485;28;20216;-69
2021/12/11 04:07:02;;;;;;;3.13;2.93;;;;;;;3.83;91.66;94151.34;5099078;28;20212;-69
2021/12/11 04:09:30;;;;;;;3.77;2.90;;;;;;;3.75;92.03;94159.03;5099565;28;20207;-70
2021/12/11 04:11:58;;;;;;;3.30;3.10;;;;;;;3.81;92.65;94162.28;5100672;27;20328;-70
2021/12/11 04:14:29;;;;;;;2.97;2.77;;;;;;;3.84;92.21;94158.00;5098198;28;20213;-70
2021/12/11 04:16:56;;;;;;;3.60;3.30;;;;;;;3.90;91.66;94152.84;5098296;28;20205;-70
2021/12/11 04:19:23;;;;;;;2.97;2.77;;;;;;;3.91;91.41;94154.50;5100072;28;20225;-69
2021/12/11 04:21:50;;;;;;;4.67;2.73;;;;;;;4.03;90.91;94139.13;5099468;28;20197;-70
2021/12/11 04:24:21;;;;;;;3.13;2.93;;;;;;;4.07;90.44;94132.34;5099978;28;20201;-68
2021/12/11 04:26:49;;;;;;;3.33;3.03;;;;;;;4.09;90.75;94133.97;5098864;28;20281;-69
2021/12/11 04:29:16;;;;;;;2.70;2.50;;;;;;;4.15;90.41;94137.19;5100585;28;20185;-68
2021/12/11 04:31:46;;;;;;;2.90;2.70;;;;;;;4.15;90.25;94132.19;5101515;28;20201;-68
2021/12/11 04:34:15;;;;;;;2.53;2.33;;;;;;;4.24;90.69;94124.38;5100295;28;20679;-70
2021/12/11 04:36:45;;;;;;;2.37;2.23;;;;;;;4.24;90.23;94114.34;5099703;28;20209;-68
2021/12/11 04:39:14;;;;;;;3.30;2.83;;;;;;;4.14;91.06;94120.47;5101541;28;21036;-69
2021/12/11 04:41:51;;;;;;;2.40;2.20;;;;;;;4.09;91.95;94108.81;5100387;28;20185;-68
2021/12/11 04:44:25;;;;;;;6.70;2.40;;;;;;;4.06;91.82;94108.91;5101683;28;20802;-68
2021/12/11 04:46:54;;;;;;;2.60;2.40;;;;;;;4.04;92.58;94110.63;5101207;28;20200;-67
2021/12/11 04:49:30;;;;;;;2.70;2.27;;;;;;;4.08;92.65;94112.19;5100466;28;20234;-70
2021/12/11 04:52:04;;;;;;;3.03;2.83;;;;;;;4.07;92.77;94105.53;5100520;28;20809;-70
2021/12/11 04:54:43;;;;;;;2.37;2.17;;;;;;;4.16;92.68;94121.25;5098529;28;20207;-69
2021/12/11 05:00:06;;;;;;;6.70;2.80;;;;;;;4.21;93.03;94119.44;5075410;28;20575;-69
2021/12/11 05:02:58;;;;;;;4.05;3.72;;;;;;;4.11;93.67;94116.34;5097594;28;20446;-69
2021/12/11 05:05:43;;;;;;;3.60;3.00;;;;;;;4.02;93.73;94114.84;5097263;28;20213;-71
2021/12/11 05:08:37;;;;;;;2.80;2.60;;;;;;;4.00;94.24;94111.53;5098533;28;20209;-68
2021/12/11 05:11:05;;;;;;;3.38;3.17;;;;;;;4.08;94.24;94122.25;5096595;28;20422;-70
2021/12/11 05:13:33;;;;;;;3.17;2.93;;;;;;;4.12;94.24;94122.19;5097939;28;20556;-69
2021/12/11 05:16:05;;;;;;;2.97;2.77;;;;;;;4.18;94.39;94124.56;5098609;28;20197;-69
2021/12/11 05:18:36;;;;;;;3.90;3.60;;;;;;;4.10;94.70;94115.50;5097965;28;20275;-68
2021/12/11 05:21:06;;;;;;;4.23;3.83;;;;;;;4.03;95.09;94114.00;5098577;28;20269;-69
2021/12/11 05:23:33;;;;;;;3.57;3.27;;;;;;;4.28;94.75;94119.25;5097317;28;20192;-69
2021/12/11 05:26:00;;;;;;;7.13;3.63;;;;;;;4.23;94.87;94122.75;5098419;28;20201;-69
2021/12/11 05:28:27;;;;;;;3.67;2.87;;;;;;;4.34;94.37;94110.75;5097575;28;20530;-69
2021/12/11 05:30:58;;;;;;;2.77;2.57;;;;;;;4.43;94.15;94108.84;5099175;28;20230;-69
2021/12/11 05:33:25;;;;;;;2.77;2.57;;;;;;;4.46;93.80;94117.97;5098212;28;20206;-70
2021/12/11 05:35:54;;;;;;;3.20;2.90;;;;;;;4.55;94.18;94105.16;5097865;28;20205;-68
2021/12/11 05:38:24;;;;;;;4.90;3.00;;;;;;;4.52;93.57;94109.44;5099353;28;20200;-69
2021/12/11 05:40:56;;;;;;;3.20;2.90;;;;;;;4.45;94.56;94111.31;5099254;28;20267;-69
2021/12/11 05:43:23;;;;;;;2.70;2.50;;;;;;;4.33;94.77;94116.63;5098813;28;20193;-70
2021/12/11 05:45:50;;;;;;;3.73;3.43;;;;;;;4.40;95.41;94108.06;5098118;28;20668;-70
2021/12/11 05:48:18;;;;;;;2.93;2.63;;;;;;;4.54;95.31;94126.16;5097508;28;20201;-68
2021/12/11 05:50:56;;;;;;;3.10;2.90;;;;;;;4.59;95.01;94109.25;5097766;28;20250;-70
2021/12/11 05:53:24;;;;;;;4.68;4.10;;;;;;;4.57;95.09;94125.25;5098317;28;20224;-70
2021/12/11 05:55:54;;;;;;;3.80;3.43;;;;;;;4.66;95.35;94115.78;5098527;28;20249;-70
2021/12/11 05:58:35;;;;;;;7.45;4.35;;;;;;;4.68;95.36;94118.28;5098765;28;20304;-70
2021/12/11 06:01:03;;;;;;;4.70;4.20;;;;;;;4.95;95.15;94131.81;5100127;28;20224;-70
2021/12/11 06:03:30;;;;;;;58.83;29.23;;;;;;;4.91;94.61;94128.56;5099575;28;20587;-69
2021/12/11 06:05:59;;;;;;;6.88;5.72;;;;;;;4.98;94.51;94132.53;5099298;28;20757;-70
2021/12/11 06:08:27;;;;;;;6.63;5.32;;;;;;;4.87;96.05;94131.19;5099054;28;20273;-70
2021/12/11 06:10:54;;;;;;;5.15;4.65;;;;;;;4.83;96.04;94129.63;5096546;28;21132;-70
2021/12/11 06:13:21;;;;;;;4.83;4.10;;;;;;;4.77;95.83;94128.06;5097202;28;20269;-70
2021/12/11 06:15:47;;;;;;;4.10;3.70;;;;;;;4.88;94.93;94121.06;5096833;28;20804;-69
2021/12/11 06:18:18;;;;;;;8.15;4.93;;;;;;;4.89;95.74;94126.94;5097200;28;20258;-69
2021/12/11 06:20:45;;;;;;;5.28;4.80;;;;;;;5.08;94.98;94135.63;5097125;28;20231;-69
2021/12/11 06:23:12;;;;;;;12.13;7.45;;;;;;;5.06;94.29;94139.88;5098368;28;20205;-69
2021/12/11 06:25:40;;;;;;;14.70;9.82;;;;;;;5.01;95.33;94127.41;5097851;28;20255;-69
2021/12/11 06:28:08;;;;;;;12.40;8.13;;;;;;;5.25;94.35;94135.16;5097303;28;20204;-69
2021/12/11 06:30:36;;;;;;;9.43;5.97;;;;;;;5.23;94.34;94140.25;5097458;28;20189;-69
2021/12/11 06:33:04;;;;;;;9.85;7.57;;;;;;;5.23;94.65;94140.25;5097645;28;20565;-69
2021/12/11 06:35:34;;;;;;;8.90;6.35;;;;;;;5.29;93.70;94137.56;5098001;28;20322;-70
2021/12/11 06:38:01;;;;;;;7.70;6.57;;;;;;;5.14;93.42;94127.94;5099711;28;20216;-70
2021/12/11 06:40:29;;;;;;;5.70;5.20;;;;;;;5.17;92.20;94132.88;5102085;28;20341;-69
2021/12/11 06:42:57;;;;;;;7.15;5.97;;;;;;;5.17;92.60;94140.44;5102736;28;20208;-69
2021/12/11 06:45:27;;;;;;;8.80;6.53;;;;;;;5.19;93.34;94145.44;5103454;28;20220;-69
2021/12/11 06:47:54;;;;;;;10.07;6.25;;;;;;;5.11;93.55;94146.47;5102263;28;20205;-69
2021/12/11 06:50:22;;;;;;;7.93;6.45;;;;;;;5.30;92.52;94144.25;5103799;28;20193;-69
2021/12/11 06:52:49;;;;;;;7.82;7.05;;;;;;;5.46;92.62;94140.41;5101217;28;20257;-69
2021/12/11 06:55:19;;;;;;;10.97;6.53;;;;;;;5.44;92.09;94122.00;5101580;28;20250;-69
2021/12/11 06:57:47;;;;;;;8.73;6.95;;;;;;;5.37;92.72;94127.28;5101079;28;20213;-70
2021/12/11 07:00:18;;;;;;;15.35;8.55;;;;;;;5.40;92.39;94129.72;5100847;28;20209;-70
2021/12/11 07:02:45;;;;;;;15.25;10.13;;;;;;;5.51;91.85;94125.19;5100489;28;20263;-70
2021/12/11 07:05:13;;;;;;;11.15;8.80;;;;;;;5.41;92.59;94127.16;5101621;28;20258;-71
2021/12/11 07:07:42;;;;;;;13.90;9.88;;;;;;;5.57;91.75;94119.13;5101375;28;20201;-71
2021/12/11 07:10:12;;;;;;;14.18;9.45;;;;;;;5.76;90.35;94116.03;5102278;28;20205;-70
2021/12/11 07:12:40;;;;;;;17.83;13.38;;;;;;;5.60;89.32;94114.00;5102440;28;20201;-70
2021/12/11 07:15:09;;;;;;;23.45;14.68;;;;;;;5.65;89.95;94105.44;5103502;28;20212;-70
2021/12/11 07:17:38;;;;;;;28.40;15.68;;;;;;;5.35;90.83;94111.38;5102379;28;20201;-70
2021/12/11 07:20:09;;;;;;;22.13;14.95;;;;;;;5.30;91.25;94113.19;5099373;28;20232;-69
2021/12/11 07:22:38;;;;;;;37.65;17.58;;;;;;;5.33;91.39;94101.34;5101196;28;20489;-69
2021/12/11 07:25:12;;;;;;;53.75;20.58;;;;;;;5.31;91.37;94097.22;5099771;28;20728;-69
2021/12/11 07:27:38;;;;;;;46.83;19.45;;;;;;;5.21;91.39;94104.19;5100944;28;20591;-70
2021/12/11 07:30:07;;;;;;;38.00;18.20;;;;;;;5.44;91.88;94104.38;5100751;28;20550;-70
2021/12/11 07:32:34;;;;;;;30.20;15.98;;;;;;;6.46;89.60;94095.34;5099958;28;20205;-69
2021/12/11 07:35:02;;;;;;;28.33;17.23;;;;;;;7.14;83.33;94094.69;5100387;28;20217;-69
2021/12/11 07:37:29;;;;;;;28.45;17.05;;;;;;;8.02;80.94;94088.81;5100803;28;20212;-69
2021/12/11 07:39:56;;;;;;;34.63;18.35;;;;;;;8.65;77.27;94086.31;5099577;28;20237;-70
2021/12/11 07:42:23;;;;;;;39.72;20.67;;;;;;;8.20;76.75;94085.53;5100837;28;20316;-69
2021/12/11 07:44:50;;;;;;;38.40;19.48;;;;;;;8.35;76.94;94098.53;5100089;28;20193;-69
2021/12/11 07:47:17;;;;;;;21.30;14.82;;;;;;;8.91;74.70;94091.09;5100243;28;20193;-69
2021/12/11 07:49:44;;;;;;;25.48;13.13;;;;;;;9.26;73.15;94097.19;5101219;28;20250;-69
2021/12/11 07:52:12;;;;;;;26.63;14.88;;;;;;;8.45;74.76;94082.88;5102273;28;20349;-70
2021/12/11 07:54:39;;;;;;;21.27;14.13;;;;;;;8.62;75.06;94102.47;5101674;28;20205;-71
2021/12/11 07:57:06;;;;;;;25.20;15.30;;;;;;;8.25;76.86;94087.91;5102216;28;20620;-71
2021/12/11 07:59:33;;;;;;;22.88;14.73;;;;;;;7.90;77.35;94084.25;5101179;28;20250;-71
2021/12/11 08:02:00;;;;;;;20.15;14.52;;;;;;;7.55;79.46;94074.63;5102266;28;20235;-69
2021/12/11 08:04:27;;;;;;;23.57;15.00;;;;;;;7.29;79.41;94073.06;5101148;28;20197;-70
2021/12/11 08:06:54;;;;;;;24.00;14.95;;;;;;;7.51;80.04;94073.94;5099239;28;20189;-70
2021/12/11 08:09:23;;;;;;;27.63;15.55;;;;;;;7.49;81.08;94081.56;5100177;28;20288;-70
2021/12/11 08:11:51;;;;;;;26.35;17.60;;;;;;;7.40;81.32;94069.28;5099350;28;20217;-70
2021/12/11 08:14:20;;;;;;;30.55;17.05;;;;;;;7.40;81.57;94086.97;5099993;28;20560;-70
2021/12/11 08:16:49;;;;;;;31.13;17.02;;;;;;;7.12;82.67;94089.69;5099192;28;20302;-70
2021/12/11 08:19:18;;;;;;;27.52;17.42;;;;;;;7.35;83.49;94093.91;5100102;28;21256;-70
2021/12/11 08:21:46;;;;;;;66.43;36.35;;;;;;;8.81;78.40;94088.13;5101199;28;20678;-69
2021/12/11 08:24:13;;;;;;;37.05;19.75;;;;;;;10.39;72.14;94086.94;5101599;28;20246;-69
2021/12/11 08:26:42;;;;;;;39.10;19.88;;;;;;;12.02;64.78;94084.41;5097881;28;20204;-69
2021/12/11 08:29:11;;;;;;;30.95;18.50;;;;;;;12.47;62.32;94077.66;5099610;28;20568;-73
2021/12/11 08:31:38;;;;;;;32.50;18.30;;;;;;;11.62;64.18;94080.63;5099702;28;20211;-69
2021/12/11 08:34:07;;;;;;;41.83;24.30;;;;;;;11.20;66.14;94079.41;5099633;28;20195;-69
2021/12/11 08:36:33;;;;;;;27.17;17.52;;;;;;;11.13;65.77;94077.28;5098931;28;20863;-70
2021/12/11 08:39:01;;;;;;;33.15;18.75;;;;;;;11.44;65.56;94077.31;5100041;28;20201;-70
2021/12/11 08:41:29;;;;;;;21.73;15.20;;;;;;;11.88;64.93;94076.69;5098016;28;20229;-70
2021/12/11 08:44:03;;;;;;;22.02;13.98;;;;;;;11.46;65.04;94060.25;5098420;28;20240;-71
2021/12/11 08:46:33;;;;;;;21.45;13.20;;;;;;;10.90;65.06;94071.63;5098629;28;20192;-70
2021/12/11 08:49:05;;;;;;;19.63;11.82;;;;;;;10.11;67.38;94065.38;5099748;28;20208;-71
2021/12/11 08:51:37;;;;;;;12.23;10.80;;;;;;;9.46;70.44;94076.81;5099993;28;20280;-69
2021/12/11 08:54:05;;;;;;;10.00;7.20;;;;;;;8.89;70.41;94074.34;5098578;28;20285;-69
2021/12/11 08:56:34;;;;;;;6.72;6.13;;;;;;;8.44;72.07;94070.28;5099928;28;20657;-69
2021/12/11 08:59:03;;;;;;;7.35;6.05;;;;;;;8.27;72.54;94054.94;5100768;28;20193;-69
2021/12/11 09:01:33;;;;;;;6.70;5.97;;;;;;;8.76;70.85;94054.56;5096018;28;20290;-69
2021/12/11 09:04:04;;;;;;;6.15;5.55;;;;;;;9.27;68.72;94055.72;5099902;28;20223;-69
2021/12/11 09:06:37;;;;;;;9.15;6.40;;;;;;;9.40;68.29;94053.47;5100201;28;20233;-69
2021/12/11 09:09:10;;;;;;;8.13;5.18;;;;;;;9.53;67.56;94052.84;5100804;28;20197;-69
2021/12/11 09:11:41;;;;;;;5.88;4.20;;;;;;;9.26;67.82;94043.94;5099798;28;20309;-69
2021/12/11 09:14:14;;;;;;;3.72;3.42;;;;;;;8.81;69.26;94037.47;5101218;28;20208;-69
2021/12/11 09:16:44;;;;;;;2.92;2.03;;;;;;;8.14;69.91;94034.38;5099883;28;20502;-69
2021/12/11 09:19:15;;;;;;;1.77;1.67;;;;;;;7.76;71.37;94033.34;5097942;28;20189;-69
2021/12/11 09:21:47;;;;;;;3.03;2.75;;;;;;;7.60;72.40;94033.13;5098932;28;20256;-69
2021/12/11 09:24:22;;;;;;;3.42;2.30;;;;;;;7.63;72.63;94024.63;5099167;28;20632;-69
2021/12/11 09:26:53;;;;;;;3.22;2.92;;;;;;;7.62;73.83;94022.97;5098301;28;20193;-70
2021/12/11 09:29:24;;;;;;;1.63;1.52;;;;;;;7.61;72.16;94023.84;5097668;28;20205;-70
2021/12/11 09:32:01;;;;;;;2.72;2.53;;;;;;;7.85;71.97;94012.78;5100364;28;20200;-70
2021/12/11 09:34:34;;;;;;;3.17;2.30;;;;;;;8.11;72.29;94010.03;5097182;28;20185;-70
2021/12/11 09:37:04;;;;;;;3.40;3.10;;;;;;;8.21;71.22;94007.91;5099035;28;20424;-69
2021/12/11 09:39:42;;;;;;;3.83;3.42;;;;;;;8.07;71.39;94008.50;5097506;28;20636;-69
2021/12/11 09:42:08;;;;;;;2.28;2.10;;;;;;;8.08;70.89;94004.25;5097722;28;20220;-71
2021/12/11 09:44:40;;;;;;;2.78;2.58;;;;;;;7.94;71.95;93999.75;5097680;28;20193;-70
2021/12/11 09:47:11;;;;;;;2.40;2.20;;;;;;;8.04;70.88;94003.56;5098774;28;20205;-70
2021/12/11 09:49:44;;;;;;;4.40;4.00;;;;;;;8.01;71.07;93998.63;5097339;28;20197;-70
2021/12/11 09:52:17;;;;;;;2.70;2.38;;;;;;;8.13;71.44;93998.13;5097129;28;20225;-70
2021/12/11 09:54:47;;;;;;;2.90;2.55;;;;;;;8.29;70.19;93997.47;5098810;28;20188;-70
2021/12/11 09:57:18;;;;;;;3.35;2.83;;;;;;;8.10;71.60;93989.84;5096896;28;20201;-70
2021/12/11 09:59:53;;;;;;;2.55;2.35;;;;;;;8.14;71.47;93987.13;5098619;28;20846;-70
2021/12/11 10:02:26;;;;;;;3.28;2.97;;;;;;;8.19;71.87;93976.78;5097568;28;20228;-70
2021/12/11 10:05:00;;;;;;;4.22;3.13;;;;;;;8.13;71.84;93977.06;5098225;28;20204;-70
2021/12/11 10:07:31;;;;;;;3.85;2.80;;;;;;;8.06;72.56;93976.47;5098712;28;20745;-71
2021/12/11 10:10:09;;;;;;;3.20;2.90;;;;;;;8.05;72.50;93974.84;5099622;28;20205;-70
2021/12/11 10:12:40;;;;;;;3.63;3.33;;;;;;;7.95;71.85;93973.56;5103032;27;20197;-70
2021/12/11 10:15:14;;;;;;;4.05;3.00;;;;;;;7.95;73.34;93958.38;5103424;28;20197;-70
2021/12/11 10:17:45;;;;;;;4.07;3.03;;;;;;;8.01;72.30;93963.19;5102444;28;20208;-70
2021/12/11 10:20:16;;;;;;;6.30;3.53;;;;;;;8.12;72.77;93967.81;5103241;28;20230;-70
2021/12/11 10:22:44;;;;;;;4.40;2.92;;;;;;;8.19;71.89;93971.72;5104001;28;20228;-71
2021/12/11 10:25:15;;;;;;;4.72;3.17;;;;;;;8.18;71.60;93970.91;5104165;28;20285;-71
2021/12/11 10:27:44;;;;;;;4.32;3.63;;;;;;;8.38;72.35;93971.81;5102494;28;20205;-71
2021/12/11 10:30:16;;;;;;;8.70;4.75;;;;;;;8.23;71.96;93969.91;5101203;28;20258;-70
2021/12/11 10:32:43;;;;;;;3.67;3.38;;;;;;;8.17;72.06;93964.19;5102634;28;20592;-70
2021/12/11 10:35:15;;;;;;;6.32;3.50;;;;;;;8.25;72.27;93963.88;5102418;28;20315;-71
2021/12/11 10:37:43;;;;;;;3.50;3.20;;;;;;;8.33;72.59;93963.59;5098641;28;20228;-70
2021/12/11 10:40:19;;;;;;;3.78;3.30;;;;;;;8.21;72.06;93949.72;5100917;28;20232;-69
2021/12/11 10:42:53;;;;;;;5.18;4.10;;;;;;;8.23;71.86;93955.53;5102305;28;20232;-69
2021/12/11 10:45:23;;;;;;;4.63;3.97;;;;;;;8.23;72.28;93954.72;5100689;28;20201;-69
2021/12/11 10:47:55;;;;;;;3.60;3.30;;;;;;;8.14;72.89;93946.63;5101770;28;20249;-69
2021/12/11 10:50:29;;;;;;;4.65;3.30;;;;;;;8.20;72.97;93943.00;5100678;28;20209;-70
2021/12/11 10:52:56;;;;;;;4.18;3.78;;;;;;;8.23;72.67;93942.88;5101428;28;20201;-71
2021/12/11 10:55:28;;;;;;;6.55;3.88;;;;;;;8.24;72.83;93943.69;5100277;28;20253;-69
2021/12/11 10:57:58;;;;;;;3.85;3.53;;;;;;;8.39;72.86;93938.03;5101389;28;20574;-69
2021/12/11 11:00:31;;;;;;;4.75;3.13;;;;;;;8.56;73.19;93925.47;5100791;28;20204;-70
2021/12/11 11:02:58;;;;;;;4.28;3.60;;;;;;;8.61;72.37;93927.78;5101195;28;20323;-69
2021/12/11 11:05:29;;;;;;;3.38;3.13;;;;;;;8.56;72.62;93925.47;5100574;28;20205;-69
2021/12/11 11:07:56;;;;;;;7.22;3.90;;;;;;;8.56;71.83;93928.00;5101664;28;20201;-69
2021/12/11 11:10:26;;;;;;;3.53;3.22;;;;;;;8.48;72.05;93923.25;5102924;28;20213;-69
2021/12/11 11:12:58;;;;;;;4.63;3.65;;;;;;;8.42;72.46;93912.56;5101946;28;20189;-70
2021/12/11 11:15:28;;;;;;;7.22;3.35;;;;;;;8.50;72.05;93916.41;5102910;28;20204;-70
2021/12/11 11:17:55;;;;;;;12.20;5.07;;;;;;;8.43;72.25;93899.84;5101304;28;20627;-70
2021/12/11 11:20:27;;;;;;;6.22;4.18;;;;;;;8.39;72.00;93908.47;5100024;28;20205;-70
2021/12/11 11:22:54;;;;;;;5.78;4.30;;;;;;;8.33;73.27;93901.16;5100714;28;20228;-70
2021/12/11 11:25:24;;;;;;;6.38;5.13;;;;;;;8.32;73.41;93906.25;5100083;28;20653;-69
2021/12/11 11:27:57;;;;;;;6.75;4.50;;;;;;;8.32;72.89;93896.13;5100767;28;20262;-69
2021/12/11 11:30:29;;;;;;;7.68;4.25;;;;;;;8.37;73.45;93890.00;5100742;28;20185;-71
2021/12/11 11:32:58;;;;;;;5.97;4.28;;;;;;;8.35;73.25;93875.78;5101828;28;20203;-70
2021/12/11 11:35:28;;;;;;;5.28;3.55;;;;;;;8.39;73.72;93882.34;5103097;28;20201;-70
2021/12/11 11:37:57;;;;;;;7.53;5.00;;;;;;;8.46;73.22;93874.38;5101742;28;20197;-70
2021/12/11 11:40:27;;;;;;;5.40;4.90;;;;;;;8.42;73.40;93872.06;5099463;28;20229;-69
2021/12/11 11:42:54;;;;;;;4.68;4.28;;;;;;;8.30;74.15;93864.97;5100882;28;20274;-69
2021/12/11 11:45:21;;;;;;;8.05;4.00;;;;;;;8.42;74.55;93860.22;5099750;28;20193;-72
2021/12/11 11:47:50;;;;;;;4.93;4.43;;;;;;;8.37;75.23;93858.81;5100949;28;20204;-69
2021/12/11 11:50:20;;;;;;;8.25;4.47;;;;;;;8.30;76.17;93858.22;5100734;28;20213;-70
2021/12/11 11:52:47;;;;;;;7.15;4.80;;;;;;;8.42;75.59;93861.94;5099804;28;20227;-70